sensor_id;sensor_type;location;lat;lon;timestamp;temperature;humidity
27540;DHT22;15906;52.046;4.724;2023-04-15T00:00:25;9.40;99.90
27540;DHT22;15906;52.046;4.724;2023-04-15T00:02:51;9.30;99.90
27540;DHT22;15906;52.046;4.724;2023-04-15T00:05:17;9.20;99.90
27540;DHT22;15906;52.046;4.724;2023-04-15T00:07:43;9.10;99.90
27540;DHT22;15906;52.046;4.724;2023-04-15T00:10:09;9.20;99.90
27540;DHT22;15906;52.046;4.724;2023-04-15T00:12:35;9.10;99.90
27540;DHT22;15906;52.046;4.724;2023-04-15T00:15:00;9.20;99.90
27540;DHT22;15906;52.046;4.724;2023-04-15T00:17:26;9.10;99.90
27540;DHT22;15906;52.046;4.724;2023-04-15T00:19:52;9.00;99.90
27540;DHT22;15906;52.046;4.724;2023-04-15T00:22:17;9.00;99.90
27540;DHT22;15906;52.046;4.724;2023-04-15T00:24:43;8.90;99.90
27540;DHT22;15906;52.046;4.724;2023-04-15T00:27:08;8.80;99.90
27540;DHT22;15906;52.046;4.724;2023-04-15T00:29:34;8.70;99.90
27540;DHT22;15906;52.046;4.724;2023-04-15T00:32:00;8.70;99.90
27540;DHT22;15906;52.046;4.724;2023-04-15T00:34:26;8.70;99.90
27540;DHT22;15906;52.046;4.724;2023-04-15T00:36:52;8.70;99.90
27540;DHT22;15906;52.046;4.724;2023-04-15T00:39:17;8.80;99.90
27540;DHT22;15906;52.046;4.724;2023-04-15T00:41:43;8.70;99.90
27540;DHT22;15906;52.046;4.724;2023-04-15T00:44:10;8.60;99.90
27540;DHT22;15906;52.046;4.724;2023-04-15T00:46:36;8.60;99.90
27540;DHT22;15906;52.046;4.724;2023-04-15T00:49:06;8.70;99.90
27540;DHT22;15906;52.046;4.724;2023-04-15T00:51:32;8.70;99.90
27540;DHT22;15906;52.046;4.724;2023-04-15T00:54:03;8.70;99.90
27540;DHT22;15906;52.046;4.724;2023-04-15T00:56:29;8.60;99.90
27540;DHT22;15906;52.046;4.724;2023-04-15T00:58:56;8.60;99.90
27540;DHT22;15906;52.046;4.724;2023-04-15T01:01:23;8.60;99.90
27540;DHT22;15906;52.046;4.724;2023-04-15T01:03:49;8.50;99.90
27540;DHT22;15906;52.046;4.724;2023-04-15T01:06:16;8.50;99.90
27540;DHT22;15906;52.046;4.724;2023-04-15T01:08:42;8.50;99.90
27540;DHT22;15906;52.046;4.724;2023-04-15T01:11:08;8.50;99.90
27540;DHT22;15906;52.046;4.724;2023-04-15T01:13:35;8.50;99.90
27540;DHT22;15906;52.046;4.724;2023-04-15T01:16:01;8.50;99.90
27540;DHT22;15906;52.046;4.724;2023-04-15T01:18:28;8.40;99.90
27540;DHT22;15906;52.046;4.724;2023-04-15T01:20:54;8.40;99.90
27540;DHT22;15906;52.046;4.724;2023-04-15T01:23:20;8.50;99.90
27540;DHT22;15906;52.046;4.724;2023-04-15T01:25:48;8.40;99.90
27540;DHT22;15906;52.046;4.724;2023-04-15T01:28:14;8.40;99.90
27540;DHT22;15906;52.046;4.724;2023-04-15T01:30:40;8.40;99.90
27540;DHT22;15906;52.046;4.724;2023-04-15T01:33:05;8.40;99.90
27540;DHT22;15906;52.046;4.724;2023-04-15T01:35:31;8.40;99.90
27540;DHT22;15906;52.046;4.724;2023-04-15T01:38:05;8.40;99.90
27540;DHT22;15906;52.046;4.724;2023-04-15T01:40:32;8.30;99.90
27540;DHT22;15906;52.046;4.724;2023-04-15T01:42:58;8.30;99.90
27540;DHT22;15906;52.046;4.724;2023-04-15T01:45:24;8.30;99.90
27540;DHT22;15906;52.046;4.724;2023-04-15T01:47:50;8.30;99.90
27540;DHT22;15906;52.046;4.724;2023-04-15T01:50:15;8.30;99.90
27540;DHT22;15906;52.046;4.724;2023-04-15T01:52:41;8.20;99.90
27540;DHT22;15906;52.046;4.724;2023-04-15T01:55:07;8.30;99.90
27540;DHT22;15906;52.046;4.724;2023-04-15T01:57:33;8.30;99.90
27540;DHT22;15906;52.046;4.724;2023-04-15T01:59:59;8.20;99.90
27540;DHT22;15906;52.046;4.724;2023-04-15T02:02:25;8.20;99.90
27540;DHT22;15906;52.046;4.724;2023-04-15T02:04:50;8.10;99.90
27540;DHT22;15906;52.046;4.724;2023-04-15T02:07:16;8.00;99.90
27540;DHT22;15906;52.046;4.724;2023-04-15T02:09:42;8.10;99.90
27540;DHT22;15906;52.046;4.724;2023-04-15T02:12:08;8.00;99.90
27540;DHT22;15906;52.046;4.724;2023-04-15T02:14:34;8.00;99.90
27540;DHT22;15906;52.046;4.724;2023-04-15T02:16:59;8.00;99.90
27540;DHT22;15906;52.046;4.724;2023-04-15T02:19:34;8.00;99.90
27540;DHT22;15906;52.046;4.724;2023-04-15T02:22:00;8.00;99.90
27540;DHT22;15906;52.046;4.724;2023-04-15T02:24:29;8.00;99.90
27540;DHT22;15906;52.046;4.724;2023-04-15T02:26:55;8.00;99.90
27540;DHT22;15906;52.046;4.724;2023-04-15T02:29:21;8.00;99.90
27540;DHT22;15906;52.046;4.724;2023-04-15T02:31:49;7.90;99.90
27540;DHT22;15906;52.046;4.724;2023-04-15T02:34:15;7.90;99.90
27540;DHT22;15906;52.046;4.724;2023-04-15T02:36:40;7.90;99.90
27540;DHT22;15906;52.046;4.724;2023-04-15T02:39:06;7.90;99.90
27540;DHT22;15906;52.046;4.724;2023-04-15T02:41:32;7.90;99.90
27540;DHT22;15906;52.046;4.724;2023-04-15T02:43:57;7.80;99.90
27540;DHT22;15906;52.046;4.724;2023-04-15T02:46:23;7.80;99.90
27540;DHT22;15906;52.046;4.724;2023-04-15T02:48:49;7.80;99.90
27540;DHT22;15906;52.046;4.724;2023-04-15T02:51:19;7.80;99.90
27540;DHT22;15906;52.046;4.724;2023-04-15T02:53:46;7.80;99.90
27540;DHT22;15906;52.046;4.724;2023-04-15T02:56:12;7.70;99.90
27540;DHT22;15906;52.046;4.724;2023-04-15T02:58:39;7.60;99.90
27540;DHT22;15906;52.046;4.724;2023-04-15T03:01:05;7.60;99.90
27540;DHT22;15906;52.046;4.724;2023-04-15T03:03:31;7.70;99.90
27540;DHT22;15906;52.046;4.724;2023-04-15T03:05:57;7.60;99.90
27540;DHT22;15906;52.046;4.724;2023-04-15T03:08:23;7.40;99.90
27540;DHT22;15906;52.046;4.724;2023-04-15T03:10:48;7.40;99.90
27540;DHT22;15906;52.046;4.724;2023-04-15T03:13:16;7.40;99.90
27540;DHT22;15906;52.046;4.724;2023-04-15T03:15:42;7.40;99.90
27540;DHT22;15906;52.046;4.724;2023-04-15T03:18:07;7.40;99.90
27540;DHT22;15906;52.046;4.724;2023-04-15T03:20:33;7.30;99.90
27540;DHT22;15906;52.046;4.724;2023-04-15T03:23:00;7.30;99.90
27540;DHT22;15906;52.046;4.724;2023-04-15T03:25:25;7.20;99.90
27540;DHT22;15906;52.046;4.724;2023-04-15T03:27:51;7.30;99.90
27540;DHT22;15906;52.046;4.724;2023-04-15T03:30:17;7.20;99.90
27540;DHT22;15906;52.046;4.724;2023-04-15T03:32:42;7.20;99.90
27540;DHT22;15906;52.046;4.724;2023-04-15T03:35:08;7.10;99.90
27540;DHT22;15906;52.046;4.724;2023-04-15T03:37:34;7.10;99.90
27540;DHT22;15906;52.046;4.724;2023-04-15T03:39:59;7.00;99.90
27540;DHT22;15906;52.046;4.724;2023-04-15T03:42:25;7.10;99.90
27540;DHT22;15906;52.046;4.724;2023-04-15T03:44:51;7.00;99.90
27540;DHT22;15906;52.046;4.724;2023-04-15T03:47:17;7.00;99.90
27540;DHT22;15906;52.046;4.724;2023-04-15T03:49:42;7.10;99.90
27540;DHT22;15906;52.046;4.724;2023-04-15T03:52:08;7.10;99.90
27540;DHT22;15906;52.046;4.724;2023-04-15T03:54:33;7.10;99.90
27540;DHT22;15906;52.046;4.724;2023-04-15T03:56:59;7.00;99.90
27540;DHT22;15906;52.046;4.724;2023-04-15T03:59:24;7.00;99.90
27540;DHT22;15906;52.046;4.724;2023-04-15T04:01:50;6.90;99.90
27540;DHT22;15906;52.046;4.724;2023-04-15T04:04:15;6.90;99.90
27540;DHT22;15906;52.046;4.724;2023-04-15T04:06:41;6.80;99.90
27540;DHT22;15906;52.046;4.724;2023-04-15T04:09:06;6.80;99.90
27540;DHT22;15906;52.046;4.724;2023-04-15T04:11:32;6.80;99.90
27540;DHT22;15906;52.046;4.724;2023-04-15T04:13:57;6.80;99.90
27540;DHT22;15906;52.046;4.724;2023-04-15T04:16:23;6.80;99.90
27540;DHT22;15906;52.046;4.724;2023-04-15T04:18:49;6.80;99.90
27540;DHT22;15906;52.046;4.724;2023-04-15T04:21:14;6.80;99.90
27540;DHT22;15906;52.046;4.724;2023-04-15T04:23:40;6.80;99.90
27540;DHT22;15906;52.046;4.724;2023-04-15T04:26:06;6.70;99.90
27540;DHT22;15906;52.046;4.724;2023-04-15T04:28:31;6.70;99.90
27540;DHT22;15906;52.046;4.724;2023-04-15T04:30:57;6.80;99.90
27540;DHT22;15906;52.046;4.724;2023-04-15T04:33:22;6.70;99.90
27540;DHT22;15906;52.046;4.724;2023-04-15T04:35:48;6.70;99.90
27540;DHT22;15906;52.046;4.724;2023-04-15T04:38:14;6.70;99.90
27540;DHT22;15906;52.046;4.724;2023-04-15T04:40:39;6.70;99.90
27540;DHT22;15906;52.046;4.724;2023-04-15T04:43:05;6.60;99.90
27540;DHT22;15906;52.046;4.724;2023-04-15T04:45:31;6.50;99.90
27540;DHT22;15906;52.046;4.724;2023-04-15T04:47:56;6.60;99.90
27540;DHT22;15906;52.046;4.724;2023-04-15T04:50:22;6.50;99.90
27540;DHT22;15906;52.046;4.724;2023-04-15T04:52:47;6.50;99.90
27540;DHT22;15906;52.046;4.724;2023-04-15T04:55:13;6.60;99.90
27540;DHT22;15906;52.046;4.724;2023-04-15T04:57:38;6.50;99.90
27540;DHT22;15906;52.046;4.724;2023-04-15T05:00:05;6.50;99.90
27540;DHT22;15906;52.046;4.724;2023-04-15T05:02:32;6.60;99.90
27540;DHT22;15906;52.046;4.724;2023-04-15T05:04:58;6.60;99.90
27540;DHT22;15906;52.046;4.724;2023-04-15T05:07:23;6.60;99.90
27540;DHT22;15906;52.046;4.724;2023-04-15T05:09:49;6.60;99.90
27540;DHT22;15906;52.046;4.724;2023-04-15T05:12:15;6.50;99.90
27540;DHT22;15906;52.046;4.724;2023-04-15T05:14:40;6.60;99.90
27540;DHT22;15906;52.046;4.724;2023-04-15T05:17:07;6.60;99.90
27540;DHT22;15906;52.046;4.724;2023-04-15T05:19:32;6.70;99.90
27540;DHT22;15906;52.046;4.724;2023-04-15T05:21:58;6.70;99.90
27540;DHT22;15906;52.046;4.724;2023-04-15T05:24:24;6.70;99.90
27540;DHT22;15906;52.046;4.724;2023-04-15T05:26:49;6.70;99.90
27540;DHT22;15906;52.046;4.724;2023-04-15T05:29:15;6.60;99.90
27540;DHT22;15906;52.046;4.724;2023-04-15T05:31:41;6.70;99.90
27540;DHT22;15906;52.046;4.724;2023-04-15T05:34:07;6.70;99.90
27540;DHT22;15906;52.046;4.724;2023-04-15T05:36:33;6.70;99.90
27540;DHT22;15906;52.046;4.724;2023-04-15T05:38:58;6.70;99.90
27540;DHT22;15906;52.046;4.724;2023-04-15T05:41:24;6.70;99.90
27540;DHT22;15906;52.046;4.724;2023-04-15T05:43:49;6.80;99.90
27540;DHT22;15906;52.046;4.724;2023-04-15T05:46:15;6.80;99.90
27540;DHT22;15906;52.046;4.724;2023-04-15T05:48:41;6.80;99.90
27540;DHT22;15906;52.046;4.724;2023-04-15T05:51:07;6.80;99.90
27540;DHT22;15906;52.046;4.724;2023-04-15T05:53:32;6.80;99.90
27540;DHT22;15906;52.046;4.724;2023-04-15T05:55:58;6.90;99.90
27540;DHT22;15906;52.046;4.724;2023-04-15T05:58:23;6.90;99.90
27540;DHT22;15906;52.046;4.724;2023-04-15T06:00:49;6.90;99.90
27540;DHT22;15906;52.046;4.724;2023-04-15T06:03:15;6.90;99.90
27540;DHT22;15906;52.046;4.724;2023-04-15T06:05:41;6.90;99.90
27540;DHT22;15906;52.046;4.724;2023-04-15T06:08:06;6.90;99.90
27540;DHT22;15906;52.046;4.724;2023-04-15T06:10:34;7.10;99.90
27540;DHT22;15906;52.046;4.724;2023-04-15T06:13:01;7.10;99.90
27540;DHT22;15906;52.046;4.724;2023-04-15T06:15:28;7.20;99.90
27540;DHT22;15906;52.046;4.724;2023-04-15T06:17:53;7.20;99.90
27540;DHT22;15906;52.046;4.724;2023-04-15T06:20:19;7.30;99.90
27540;DHT22;15906;52.046;4.724;2023-04-15T06:22:44;7.30;99.90
27540;DHT22;15906;52.046;4.724;2023-04-15T06:25:10;7.30;99.90
27540;DHT22;15906;52.046;4.724;2023-04-15T06:27:36;7.60;99.90
27540;DHT22;15906;52.046;4.724;2023-04-15T06:30:01;7.50;99.90
27540;DHT22;15906;52.046;4.724;2023-04-15T06:32:27;7.60;99.90
27540;DHT22;15906;52.046;4.724;2023-04-15T06:34:53;7.80;99.90
27540;DHT22;15906;52.046;4.724;2023-04-15T06:37:18;7.80;99.90
27540;DHT22;15906;52.046;4.724;2023-04-15T06:39:44;8.00;99.90
27540;DHT22;15906;52.046;4.724;2023-04-15T06:42:12;8.20;99.90
27540;DHT22;15906;52.046;4.724;2023-04-15T06:44:38;8.40;99.90
27540;DHT22;15906;52.046;4.724;2023-04-15T06:47:04;8.80;99.90
27540;DHT22;15906;52.046;4.724;2023-04-15T06:49:29;9.20;99.90
27540;DHT22;15906;52.046;4.724;2023-04-15T06:51:55;9.60;99.90
27540;DHT22;15906;52.046;4.724;2023-04-15T06:54:21;10.00;99.90
27540;DHT22;15906;52.046;4.724;2023-04-15T06:56:46;10.40;99.90
27540;DHT22;15906;52.046;4.724;2023-04-15T06:59:12;10.60;99.90
27540;DHT22;15906;52.046;4.724;2023-04-15T07:01:39;10.80;99.90
27540;DHT22;15906;52.046;4.724;2023-04-15T07:04:05;11.00;99.90
27540;DHT22;15906;52.046;4.724;2023-04-15T07:06:31;11.30;99.90
27540;DHT22;15906;52.046;4.724;2023-04-15T07:08:57;11.30;99.90
27540;DHT22;15906;52.046;4.724;2023-04-15T07:11:24;11.20;99.90
27540;DHT22;15906;52.046;4.724;2023-04-15T07:13:50;11.20;99.90
27540;DHT22;15906;52.046;4.724;2023-04-15T07:16:15;11.30;99.90
27540;DHT22;15906;52.046;4.724;2023-04-15T07:18:41;11.40;99.90
27540;DHT22;15906;52.046;4.724;2023-04-15T07:21:07;11.50;99.90
27540;DHT22;15906;52.046;4.724;2023-04-15T07:23:33;11.50;99.90
27540;DHT22;15906;52.046;4.724;2023-04-15T07:25:59;11.60;99.90
27540;DHT22;15906;52.046;4.724;2023-04-15T07:28:25;11.70;99.90
27540;DHT22;15906;52.046;4.724;2023-04-15T07:30:50;11.80;99.90
27540;DHT22;15906;52.046;4.724;2023-04-15T07:33:16;11.90;99.90
27540;DHT22;15906;52.046;4.724;2023-04-15T07:35:42;11.80;99.90
27540;DHT22;15906;52.046;4.724;2023-04-15T07:38:07;11.80;99.90
27540;DHT22;15906;52.046;4.724;2023-04-15T07:40:33;11.80;99.90
27540;DHT22;15906;52.046;4.724;2023-04-15T07:42:59;11.90;99.90
27540;DHT22;15906;52.046;4.724;2023-04-15T07:45:24;12.00;99.90
27540;DHT22;15906;52.046;4.724;2023-04-15T07:47:50;12.20;99.90
27540;DHT22;15906;52.046;4.724;2023-04-15T07:50:16;12.30;99.90
27540;DHT22;15906;52.046;4.724;2023-04-15T07:52:42;12.30;99.90
27540;DHT22;15906;52.046;4.724;2023-04-15T07:55:08;12.40;99.90
27540;DHT22;15906;52.046;4.724;2023-04-15T07:57:34;12.70;99.90
27540;DHT22;15906;52.046;4.724;2023-04-15T08:00:01;13.00;99.90
27540;DHT22;15906;52.046;4.724;2023-04-15T08:02:28;12.90;99.90
27540;DHT22;15906;52.046;4.724;2023-04-15T08:04:54;13.00;99.90
27540;DHT22;15906;52.046;4.724;2023-04-15T08:07:19;12.90;99.90
27540;DHT22;15906;52.046;4.724;2023-04-15T08:09:45;13.00;99.90
27540;DHT22;15906;52.046;4.724;2023-04-15T08:12:11;12.90;99.90
27540;DHT22;15906;52.046;4.724;2023-04-15T08:14:38;12.80;99.90
27540;DHT22;15906;52.046;4.724;2023-04-15T08:17:04;13.00;99.90
27540;DHT22;15906;52.046;4.724;2023-04-15T08:19:30;12.80;99.90
27540;DHT22;15906;52.046;4.724;2023-04-15T08:21:55;12.90;99.90
27540;DHT22;15906;52.046;4.724;2023-04-15T08:24:21;13.00;99.90
27540;DHT22;15906;52.046;4.724;2023-04-15T08:26:47;12.90;99.90
27540;DHT22;15906;52.046;4.724;2023-04-15T08:29:12;13.00;99.90
27540;DHT22;15906;52.046;4.724;2023-04-15T08:31:38;13.10;99.90
27540;DHT22;15906;52.046;4.724;2023-04-15T08:34:04;13.40;99.90
27540;DHT22;15906;52.046;4.724;2023-04-15T08:36:29;13.50;99.90
27540;DHT22;15906;52.046;4.724;2023-04-15T08:38:56;13.50;99.90
27540;DHT22;15906;52.046;4.724;2023-04-15T08:41:23;14.00;99.90
27540;DHT22;15906;52.046;4.724;2023-04-15T08:44:02;14.10;99.90
27540;DHT22;15906;52.046;4.724;2023-04-15T08:46:30;14.20;99.90
27540;DHT22;15906;52.046;4.724;2023-04-15T08:48:57;14.00;99.90
27540;DHT22;15906;52.046;4.724;2023-04-15T08:51:23;13.90;99.90
27540;DHT22;15906;52.046;4.724;2023-04-15T08:53:49;14.20;99.90
27540;DHT22;15906;52.046;4.724;2023-04-15T08:56:15;14.60;99.90
27540;DHT22;15906;52.046;4.724;2023-04-15T08:58:43;14.70;99.90
27540;DHT22;15906;52.046;4.724;2023-04-15T09:01:11;14.50;99.90
27540;DHT22;15906;52.046;4.724;2023-04-15T09:03:37;14.30;99.90
27540;DHT22;15906;52.046;4.724;2023-04-15T09:06:04;14.60;99.90
27540;DHT22;15906;52.046;4.724;2023-04-15T09:08:30;14.70;99.90
27540;DHT22;15906;52.046;4.724;2023-04-15T09:10:56;14.90;99.90
27540;DHT22;15906;52.046;4.724;2023-04-15T09:13:21;14.90;99.90
27540;DHT22;15906;52.046;4.724;2023-04-15T09:15:47;15.10;99.90
27540;DHT22;15906;52.046;4.724;2023-04-15T09:18:32;15.50;99.90
27540;DHT22;15906;52.046;4.724;2023-04-15T09:21:09;15.60;99.90
27540;DHT22;15906;52.046;4.724;2023-04-15T09:23:37;15.70;99.90
27540;DHT22;15906;52.046;4.724;2023-04-15T09:26:03;15.80;99.90
27540;DHT22;15906;52.046;4.724;2023-04-15T09:28:29;15.50;99.90
27540;DHT22;15906;52.046;4.724;2023-04-15T09:30:59;15.30;99.90
27540;DHT22;15906;52.046;4.724;2023-04-15T09:33:26;15.50;99.90
27540;DHT22;15906;52.046;4.724;2023-04-15T09:36:03;15.80;99.90
27540;DHT22;15906;52.046;4.724;2023-04-15T09:38:29;15.70;99.90
27540;DHT22;15906;52.046;4.724;2023-04-15T09:40:56;15.50;99.90
27540;DHT22;15906;52.046;4.724;2023-04-15T09:43:22;16.00;99.90
27540;DHT22;15906;52.046;4.724;2023-04-15T09:46:01;16.20;99.90
27540;DHT22;15906;52.046;4.724;2023-04-15T09:48:26;16.00;99.20
27540;DHT22;15906;52.046;4.724;2023-04-15T09:50:54;16.00;99.90
27540;DHT22;15906;52.046;4.724;2023-04-15T09:53:23;16.10;98.80
27540;DHT22;15906;52.046;4.724;2023-04-15T09:55:57;15.90;98.50
27540;DHT22;15906;52.046;4.724;2023-04-15T09:58:25;15.60;98.70
27540;DHT22;15906;52.046;4.724;2023-04-15T10:00:55;15.80;99.20
27540;DHT22;15906;52.046;4.724;2023-04-15T10:03:26;16.00;98.80
27540;DHT22;15906;52.046;4.724;2023-04-15T10:05:57;16.10;99.90
27540;DHT22;15906;52.046;4.724;2023-04-15T10:08:26;16.00;97.90
27540;DHT22;15906;52.046;4.724;2023-04-15T10:10:52;16.00;99.90
27540;DHT22;15906;52.046;4.724;2023-04-15T10:13:20;16.00;98.10
27540;DHT22;15906;52.046;4.724;2023-04-15T10:16:04;16.20;99.90
27540;DHT22;15906;52.046;4.724;2023-04-15T10:18:34;16.60;99.90
27540;DHT22;15906;52.046;4.724;2023-04-15T10:21:00;16.60;99.90
27540;DHT22;15906;52.046;4.724;2023-04-15T10:23:26;16.80;98.30
27540;DHT22;15906;52.046;4.724;2023-04-15T10:25:53;16.70;98.50
27540;DHT22;15906;52.046;4.724;2023-04-15T10:28:19;16.50;98.10
27540;DHT22;15906;52.046;4.724;2023-04-15T10:30:45;16.50;99.90
27540;DHT22;15906;52.046;4.724;2023-04-15T10:33:13;16.60;99.90
27540;DHT22;15906;52.046;4.724;2023-04-15T10:35:41;16.50;98.00
27540;DHT22;15906;52.046;4.724;2023-04-15T10:41:20;16.50;99.90
27540;DHT22;15906;52.046;4.724;2023-04-15T10:43:53;16.60;99.90
27540;DHT22;15906;52.046;4.724;2023-04-15T10:46:40;16.70;99.90
27540;DHT22;15906;52.046;4.724;2023-04-15T10:49:16;16.80;98.50
27540;DHT22;15906;52.046;4.724;2023-04-15T10:51:45;16.80;99.90
27540;DHT22;15906;52.046;4.724;2023-04-15T10:54:34;17.00;97.90
27540;DHT22;15906;52.046;4.724;2023-04-15T10:59:34;16.90;98.50
27540;DHT22;15906;52.046;4.724;2023-04-15T11:02:02;17.00;98.60
27540;DHT22;15906;52.046;4.724;2023-04-15T11:04:51;17.10;98.90
27540;DHT22;15906;52.046;4.724;2023-04-15T11:07:36;17.00;97.90
27540;DHT22;15906;52.046;4.724;2023-04-15T11:10:11;16.70;99.20
27540;DHT22;15906;52.046;4.724;2023-04-15T11:12:55;16.50;99.90
27540;DHT22;15906;52.046;4.724;2023-04-15T11:15:35;16.20;99.90
27540;DHT22;15906;52.046;4.724;2023-04-15T11:18:12;16.30;99.90
27540;DHT22;15906;52.046;4.724;2023-04-15T11:20:40;16.10;99.90
27540;DHT22;15906;52.046;4.724;2023-04-15T11:23:06;16.10;99.90
27540;DHT22;15906;52.046;4.724;2023-04-15T11:25:33;16.30;99.90
27540;DHT22;15906;52.046;4.724;2023-04-15T11:28:01;16.30;99.90
27540;DHT22;15906;52.046;4.724;2023-04-15T11:30:29;16.40;99.90
27540;DHT22;15906;52.046;4.724;2023-04-15T11:32:58;16.60;99.90
27540;DHT22;15906;52.046;4.724;2023-04-15T11:35:24;16.60;99.90
27540;DHT22;15906;52.046;4.724;2023-04-15T11:37:50;16.60;99.90
27540;DHT22;15906;52.046;4.724;2023-04-15T11:40:19;16.30;98.80
27540;DHT22;15906;52.046;4.724;2023-04-15T11:42:46;16.40;99.90
27540;DHT22;15906;52.046;4.724;2023-04-15T11:45:27;16.60;99.90
27540;DHT22;15906;52.046;4.724;2023-04-15T11:47:53;16.90;99.90
27540;DHT22;15906;52.046;4.724;2023-04-15T11:50:20;17.20;99.90
27540;DHT22;15906;52.046;4.724;2023-04-15T11:52:57;17.50;98.20
27540;DHT22;15906;52.046;4.724;2023-04-15T11:55:24;17.50;99.90
27540;DHT22;15906;52.046;4.724;2023-04-15T11:57:51;17.20;97.60
27540;DHT22;15906;52.046;4.724;2023-04-15T12:00:29;16.90;99.20
27540;DHT22;15906;52.046;4.724;2023-04-15T12:03:16;17.00;99.90
27540;DHT22;15906;52.046;4.724;2023-04-15T12:11:20;16.70;98.60
27540;DHT22;15906;52.046;4.724;2023-04-15T12:13:56;16.80;99.90
27540;DHT22;15906;52.046;4.724;2023-04-15T12:16:23;16.90;99.00
27540;DHT22;15906;52.046;4.724;2023-04-15T12:18:54;17.00;97.50
27540;DHT22;15906;52.046;4.724;2023-04-15T12:21:27;17.10;99.40
27540;DHT22;15906;52.046;4.724;2023-04-15T12:24:00;17.30;96.80
27540;DHT22;15906;52.046;4.724;2023-04-15T12:26:28;17.30;97.30
27540;DHT22;15906;52.046;4.724;2023-04-15T12:28:54;17.40;98.00
27540;DHT22;15906;52.046;4.724;2023-04-15T12:31:21;17.30;98.50
27540;DHT22;15906;52.046;4.724;2023-04-15T12:33:48;17.30;97.10
27540;DHT22;15906;52.046;4.724;2023-04-15T12:36:14;17.30;97.70
27540;DHT22;15906;52.046;4.724;2023-04-15T12:38:39;17.00;97.70
27540;DHT22;15906;52.046;4.724;2023-04-15T12:41:05;16.90;97.90
27540;DHT22;15906;52.046;4.724;2023-04-15T12:43:31;16.60;99.30
27540;DHT22;15906;52.046;4.724;2023-04-15T12:45:56;16.70;99.10
27540;DHT22;15906;52.046;4.724;2023-04-15T12:48:22;16.50;99.00
27540;DHT22;15906;52.046;4.724;2023-04-15T12:50:47;16.70;97.90
27540;DHT22;15906;52.046;4.724;2023-04-15T12:53:13;16.40;96.50
27540;DHT22;15906;52.046;4.724;2023-04-15T12:55:39;16.30;99.00
27540;DHT22;15906;52.046;4.724;2023-04-15T12:58:04;16.20;97.80
27540;DHT22;15906;52.046;4.724;2023-04-15T13:00:33;16.60;99.30
27540;DHT22;15906;52.046;4.724;2023-04-15T13:02:58;17.00;98.00
27540;DHT22;15906;52.046;4.724;2023-04-15T13:05:24;16.90;97.50
27540;DHT22;15906;52.046;4.724;2023-04-15T13:07:49;16.90;97.50
27540;DHT22;15906;52.046;4.724;2023-04-15T13:10:15;16.80;98.20
27540;DHT22;15906;52.046;4.724;2023-04-15T13:12:41;16.20;97.90
27540;DHT22;15906;52.046;4.724;2023-04-15T13:15:07;16.10;99.40
27540;DHT22;15906;52.046;4.724;2023-04-15T13:17:35;16.30;99.60
27540;DHT22;15906;52.046;4.724;2023-04-15T13:20:01;16.20;99.90
27540;DHT22;15906;52.046;4.724;2023-04-15T13:22:26;16.00;99.90
27540;DHT22;15906;52.046;4.724;2023-04-15T13:24:52;16.30;99.90
27540;DHT22;15906;52.046;4.724;2023-04-15T13:27:17;16.60;98.50
27540;DHT22;15906;52.046;4.724;2023-04-15T13:29:43;16.30;97.60
27540;DHT22;15906;52.046;4.724;2023-04-15T13:32:08;16.20;98.70
27540;DHT22;15906;52.046;4.724;2023-04-15T13:34:34;16.10;98.20
27540;DHT22;15906;52.046;4.724;2023-04-15T13:37:05;15.80;98.40
27540;DHT22;15906;52.046;4.724;2023-04-15T13:39:31;15.80;99.10
27540;DHT22;15906;52.046;4.724;2023-04-15T13:41:57;15.80;98.50
27540;DHT22;15906;52.046;4.724;2023-04-15T13:44:22;15.60;99.90
27540;DHT22;15906;52.046;4.724;2023-04-15T13:46:48;15.70;99.90
27540;DHT22;15906;52.046;4.724;2023-04-15T13:49:13;15.60;98.60
27540;DHT22;15906;52.046;4.724;2023-04-15T13:51:39;15.70;98.30
27540;DHT22;15906;52.046;4.724;2023-04-15T13:54:04;15.80;99.00
27540;DHT22;15906;52.046;4.724;2023-04-15T13:56:30;16.00;99.30
27540;DHT22;15906;52.046;4.724;2023-04-15T13:58:56;16.10;98.80
27540;DHT22;15906;52.046;4.724;2023-04-15T14:01:24;16.20;97.50
27540;DHT22;15906;52.046;4.724;2023-04-15T14:03:49;16.20;97.90
27540;DHT22;15906;52.046;4.724;2023-04-15T14:06:15;16.10;98.50
27540;DHT22;15906;52.046;4.724;2023-04-15T14:08:41;16.10;97.60
27540;DHT22;15906;52.046;4.724;2023-04-15T14:11:06;16.20;98.00
27540;DHT22;15906;52.046;4.724;2023-04-15T14:13:32;15.70;98.60
27540;DHT22;15906;52.046;4.724;2023-04-15T14:15:57;15.30;98.90
27540;DHT22;15906;52.046;4.724;2023-04-15T14:18:23;15.20;99.90
27540;DHT22;15906;52.046;4.724;2023-04-15T14:20:49;15.50;99.90
27540;DHT22;15906;52.046;4.724;2023-04-15T14:23:14;15.40;99.50
27540;DHT22;15906;52.046;4.724;2023-04-15T14:25:40;15.40;98.90
27540;DHT22;15906;52.046;4.724;2023-04-15T14:28:06;15.40;99.50
27540;DHT22;15906;52.046;4.724;2023-04-15T14:30:31;15.50;99.90
27540;DHT22;15906;52.046;4.724;2023-04-15T14:32:57;15.50;99.90
27540;DHT22;15906;52.046;4.724;2023-04-15T14:35:22;15.30;99.90
27540;DHT22;15906;52.046;4.724;2023-04-15T14:37:51;15.20;99.90
27540;DHT22;15906;52.046;4.724;2023-04-15T14:40:17;15.40;99.90
27540;DHT22;15906;52.046;4.724;2023-04-15T14:42:43;15.10;99.90
27540;DHT22;15906;52.046;4.724;2023-04-15T14:45:09;14.70;99.90
27540;DHT22;15906;52.046;4.724;2023-04-15T14:47:34;14.70;99.90
27540;DHT22;15906;52.046;4.724;2023-04-15T14:50:00;14.60;99.90
27540;DHT22;15906;52.046;4.724;2023-04-15T14:52:26;14.60;99.90
27540;DHT22;15906;52.046;4.724;2023-04-15T14:54:52;14.50;99.90
27540;DHT22;15906;52.046;4.724;2023-04-15T14:57:17;14.50;99.90
27540;DHT22;15906;52.046;4.724;2023-04-15T14:59:43;14.40;99.90
27540;DHT22;15906;52.046;4.724;2023-04-15T15:02:08;14.30;99.90
27540;DHT22;15906;52.046;4.724;2023-04-15T15:04:34;14.30;99.90
27540;DHT22;15906;52.046;4.724;2023-04-15T15:07:00;14.30;99.90
27540;DHT22;15906;52.046;4.724;2023-04-15T15:09:26;14.40;99.90
27540;DHT22;15906;52.046;4.724;2023-04-15T15:11:51;14.30;99.90
27540;DHT22;15906;52.046;4.724;2023-04-15T15:14:17;14.40;99.90
27540;DHT22;15906;52.046;4.724;2023-04-15T15:16:43;14.30;99.90
27540;DHT22;15906;52.046;4.724;2023-04-15T15:19:08;14.20;99.90
27540;DHT22;15906;52.046;4.724;2023-04-15T15:21:35;14.10;99.90
27540;DHT22;15906;52.046;4.724;2023-04-15T15:24:01;14.20;99.90
27540;DHT22;15906;52.046;4.724;2023-04-15T15:26:27;14.30;99.90
27540;DHT22;15906;52.046;4.724;2023-04-15T15:28:53;14.20;99.90
27540;DHT22;15906;52.046;4.724;2023-04-15T15:31:19;14.00;99.90
27540;DHT22;15906;52.046;4.724;2023-04-15T15:33:44;13.90;99.90
27540;DHT22;15906;52.046;4.724;2023-04-15T15:36:10;13.90;99.90
27540;DHT22;15906;52.046;4.724;2023-04-15T15:38:35;13.80;99.90
27540;DHT22;15906;52.046;4.724;2023-04-15T15:41:01;13.70;99.90
27540;DHT22;15906;52.046;4.724;2023-04-15T15:43:26;13.60;99.90
27540;DHT22;15906;52.046;4.724;2023-04-15T15:45:52;13.60;99.90